Latest Weather Observations for Bega

IDN60801

Issued at 7:32 pm EDT Wednesday 22 February 2017 (issued every 30 minutes, with the page automatically refreshed every 10 minutes)

About weather observations | Map of weather stations | Latest weather observations for NSW | Other Formats
Station Details ID: 069139 Name: BEGA AWS Lat: -36.67 Lon: 149.82 Height: 41.0 m
Data from the previous 72 hours. | See also: Recent months at Bega
Date/Time
EDT
Temp
°C
App
Temp
°C
Dew
Point
°C
Rel
Hum
%
Delta-T
°C
Wind Press
QNH
hPa
Press
MSL
hPa
Rain since
9am
mm
Dir  Spd
km/h
Gust
km/h
Spd
kts
Gust
kts
22/07:30pm 24.5 24.6 16.5 61 4.9 NNE 11 17 6 9 1014.2 1014.1 0.0
22/07:00pm 25.7 25.2 16.0 55 5.9 N 13 17 7 9 1013.9 1013.8 0.0
22/06:30pm 26.3 23.0 16.0 53 6.3 NE 28 37 15 20 1013.1 1013.0 0.0
22/06:00pm 27.5 24.6 16.1 49 7.0 NE 26 35 14 19 1013.1 1013.0 0.0
22/05:30pm 27.8 23.8 16.1 49 7.2 NE 32 41 17 22 1012.8 1012.7 0.0
22/05:00pm 28.5 23.9 16.1 47 7.7 NE 35 46 19 25 1013.1 1013.0 0.0
22/04:30pm 28.6 24.5 16.5 48 7.5 NE 33 44 18 24 1013.1 1013.0 0.0
22/04:00pm 28.8 25.0 16.7 48 7.6 NE 32 43 17 23 1013.3 1013.2 0.0
22/03:30pm 29.4 26.2 17.2 47 7.7 NE 30 39 16 21 1013.8 1013.7 0.0
22/03:00pm 29.4 26.3 17.6 49 7.5 NE 30 43 16 23 1014.1 1014.0 0.0
22/02:30pm 29.0 24.9 16.5 46 7.8 NE 33 43 18 23 1014.5 1014.4 0.0
22/02:00pm 29.2 26.7 17.1 48 7.6 NE 26 33 14 18 1014.9 1014.8 0.0
22/01:30pm 29.6 26.8 16.4 45 8.2 NE 26 33 14 18 1015.5 1015.4 0.0
22/01:00pm 29.5 26.9 13.3 37 9.6 NNE 19 33 10 18 1015.9 1015.7 0.0
22/12:30pm 29.3 25.8 13.5 38 9.4 N 24 39 13 21 1016.2 1016.0 0.0
22/12:00pm 28.8 25.0 13.5 39 9.1 NNE 26 37 14 20 1016.8 1016.6 0.0
22/11:30am 28.5 24.7 14.7 43 8.4 NNE 28 41 15 22 1017.3 1017.1 0.0
22/11:00am 27.4 24.8 14.8 46 7.6 N 22 33 12 18 1017.9 1017.7 0.0
22/10:30am 25.0 24.5 15.9 57 5.5 ENE 13 15 7 8 1018.5 1018.3 0.0
22/10:00am 21.7 21.7 14.1 62 4.4 E 7 9 4 5 1019.2 1019.0 0.0
22/09:30am 19.7 19.5 13.6 68 3.5 SE 7 9 4 5 1019.6 1019.4 0.0
22/09:00am 17.1 17.5 12.6 75 2.5 S 2 9 1 5 1019.8 1019.6 0.0
22/08:30am 16.9 16.4 12.2 74 2.6 E 6 9 3 5 1020.0 1019.8 0.0
22/08:00am 15.5 15.8 12.3 81 1.7 ENE 2 6 1 3 1020.0 1019.8 0.0
22/07:30am 13.1 14.0 12.8 98 0.2 CALM 0 0 0 0 1019.9 1019.7 0.0
22/07:00am 12.3 12.8 11.7 96 0.3 CALM 0 4 0 2 1019.7 1019.5 0.0
22/06:30am 12.4 12.9 11.6 95 0.4 CALM 0 0 0 0 1019.6 1019.4 0.0
22/06:00am 12.8 13.4 11.9 94 0.5 CALM 0 0 0 0 1019.2 1019.0 0.0
22/05:30am 13.0 13.5 11.7 92 0.7 CALM 0 0 0 0 1019.2 1019.0 0.0
22/05:00am 13.9 14.7 12.6 92 0.7 CALM 0 0 0 0 1019.1 1018.9 0.0
22/04:30am 14.3 15.1 12.5 89 1.0 CALM 0 0 0 0 1019.3 1019.1 0.0
22/04:00am 15.2 16.1 12.9 86 1.3 CALM 0 0 0 0 1019.5 1019.3 0.0
22/03:30am 15.4 16.2 12.7 84 1.5 CALM 0 0 0 0 1019.7 1019.5 0.0
22/03:00am 16.3 17.3 13.2 82 1.7 CALM 0 7 0 4 1019.9 1019.7 0.0
22/02:30am 17.1 17.9 12.6 75 2.5 CALM 0 0 0 0 1020.3 1020.1 0.0
22/02:00am 17.3 18.1 12.6 74 2.6 CALM 0 0 0 0 1020.5 1020.3 0.0
22/01:30am 17.3 18.1 12.6 74 2.6 CALM 0 0 0 0 1020.8 1020.6 0.0
22/01:00am 17.3 18.1 12.4 73 2.7 CALM 0 0 0 0 1021.2 1021.0 0.0
22/12:30am 17.3 17.9 12.0 71 2.9 CALM 0 0 0 0 1021.6 1021.4 0.0
22/12:00am 17.5 18.1 12.0 70 3.0 CALM 0 0 0 0 1021.9 1021.7 0.0
 
Date/Time
EDT
Temp
°C
App
Temp
°C
Dew
Point
°C
Rel
Hum
%
Delta-T
°C
Wind Press
QNH
hPa
Press
MSL
hPa
Rain since
9am
mm
Dir  Spd
km/h
Gust
km/h
Spd
kts
Gust
kts
21/11:30pm 17.9 18.4 11.7 67 3.4 CALM 0 0 0 0 1022.1 1021.9 0.0
21/11:00pm 18.1 18.8 12.1 68 3.3 CALM 0 4 0 2 1022.2 1022.0 0.0
21/10:30pm 18.3 19.0 12.1 67 3.4 CALM 0 0 0 0 1022.4 1022.2 0.0
21/10:00pm 18.5 18.3 11.8 65 3.7 N 4 7 2 4 1022.3 1022.1 0.0
21/09:30pm 18.4 17.8 11.7 65 3.7 N 6 7 3 4 1022.1 1021.9 0.0
21/09:00pm 18.5 17.8 11.3 63 3.9 NE 6 9 3 5 1021.9 1021.7 0.0
21/08:30pm 18.7 17.7 11.0 61 4.2 ENE 7 11 4 6 1021.9 1021.7 0.0
21/08:00pm 18.9 17.5 11.0 60 4.3 ENE 9 13 5 7 1021.5 1021.3 0.0
21/07:30pm 19.2 16.7 11.0 59 4.5 ENE 15 20 8 11 1021.2 1021.0 0.0
21/07:00pm 19.5 17.0 11.0 58 4.6 ENE 15 22 8 12 1020.8 1020.6 0.0
21/06:30pm 20.1 16.5 10.5 54 5.2 E 20 32 11 17 1020.3 1020.1 0.0
21/06:00pm 21.0 17.5 10.8 52 5.6 ENE 20 30 11 16 1020.0 1019.8 0.0
21/05:30pm 21.4 17.7 10.3 49 6.0 E 20 28 11 15 1019.7 1019.5 0.0
21/05:00pm 21.9 17.5 10.4 48 6.3 E 24 32 13 17 1019.7 1019.5 0.0
21/04:30pm 22.3 18.0 10.8 48 6.4 ENE 24 33 13 18 1019.7 1019.5 0.0
21/04:00pm 23.2 18.9 10.9 46 6.8 E 24 30 13 16 1019.4 1019.2 0.0
21/03:30pm 22.9 18.5 10.3 45 6.9 ENE 24 32 13 17 1019.4 1019.2 0.0
21/03:00pm 23.5 19.3 9.9 42 7.4 NE 22 35 12 19 1019.4 1019.2 0.0
21/02:30pm 24.0 19.5 9.9 41 7.7 ENE 24 32 13 17 1019.4 1019.2 0.0
21/02:00pm 23.9 19.3 8.3 37 8.3 E 22 30 12 16 1019.6 1019.4 0.0
21/01:30pm 24.1 19.6 8.5 37 8.3 ENE 22 30 12 16 1019.7 1019.5 0.0
21/01:00pm 24.5 20.1 6.7 32 9.2 NNE 19 33 10 18 1019.6 1019.4 0.0
21/12:30pm 23.7 20.6 5.6 31 9.2 SSW 11 17 6 9 1019.9 1019.7 0.0
21/12:00pm 23.6 20.3 6.4 33 8.8 ENE 13 19 7 10 1020.4 1020.2 0.0
21/11:30am 22.5 19.9 5.9 34 8.4 E 9 17 5 9 1020.8 1020.6 0.0
21/11:00am 21.9 20.2 8.4 42 7.1 NE 7 13 4 7 1021.1 1020.9 0.0
21/10:30am 20.8 19.2 8.1 44 6.6 NE 6 13 3 7 1021.2 1021.0 0.0
21/10:00am 18.2 16.3 7.6 50 5.4 ESE 7 9 4 5 1021.4 1021.2 0.0
21/09:30am 16.7 15.3 8.7 59 4.1 ESE 6 9 3 5 1021.4 1021.2 0.0
21/09:00am 14.2 13.9 8.6 69 2.8 CALM 0 0 0 0 1021.3 1021.1 0.2
21/08:30am 11.2 10.8 8.1 81 1.5 CALM 0 0 0 0 1021.0 1020.8 0.2
21/08:00am 9.4 7.7 7.5 88 0.9 SSE 6 7 3 4 1020.7 1020.5 0.2
21/07:30am 7.6 6.9 6.9 95 0.3 CALM 0 0 0 0 1020.3 1020.1 0.2
21/07:00am 7.0 6.2 6.4 96 0.3 CALM 0 0 0 0 1019.8 1019.6 0.2
21/06:30am 7.0 6.0 5.8 92 0.5 CALM 0 0 0 0 1019.3 1019.1 0.2
21/06:00am 7.6 6.7 6.2 91 0.6 CALM 0 6 0 3 1018.9 1018.7 0.2
21/05:30am 8.1 6.1 6.9 92 0.6 SSW 7 11 4 6 1018.5 1018.3 0.2
21/05:00am 8.0 6.1 6.6 91 0.6 WNW 6 9 3 5 1018.0 1017.8 0.2
21/04:30am 8.9 7.1 7.2 89 0.8 NNE 6 9 3 5 1017.9 1017.7 0.2
21/04:00am 8.7 6.7 7.3 91 0.7 NW 7 9 4 5 1018.0 1017.8 0.2
21/03:30am 8.6 6.6 6.9 89 0.8 E 7 9 4 5 1018.0 1017.8 0.2
21/03:00am 9.7 9.1 7.5 86 1.0 CALM 0 0 0 0 1017.8 1017.6 0.2
21/02:30am 9.7 9.1 7.6 87 1.0 CALM 0 0 0 0 1017.8 1017.6 0.2
21/02:00am 10.4 9.4 7.3 81 1.5 E 2 7 1 4 1017.7 1017.5 0.2
21/01:30am 11.6 11.3 8.5 81 1.5 CALM 0 0 0 0 1017.9 1017.7 0.2
21/01:00am 11.2 10.5 8.4 83 1.4 SW 2 7 1 4 1018.0 1017.8 0.2
21/12:30am 13.3 12.7 7.3 67 2.9 CALM 0 6 0 3 1017.7 1017.5 0.2
21/12:00am 14.0 12.6 7.1 63 3.4 NNW 4 9 2 5 1017.5 1017.3 0.2
 
Date/Time
EDT
Temp
°C
App
Temp
°C
Dew
Point
°C
Rel
Hum
%
Delta-T
°C
Wind Press
QNH
hPa
Press
MSL
hPa
Rain since
9am
mm
Dir  Spd
km/h
Gust
km/h
Spd
kts
Gust
kts
20/11:30pm 14.6 14.0 7.4 62 3.6 CALM 0 0 0 0 1017.1 1016.9 0.2
20/11:00pm 14.7 14.2 8.0 64 3.3 CALM 0 6 0 3 1016.7 1016.5 0.2
20/10:30pm 15.2 13.9 7.5 60 3.8 S 4 7 2 4 1016.4 1016.2 0.2
20/10:00pm 16.9 13.9 7.8 55 4.6 SW 13 17 7 9 1016.0 1015.8 0.2
20/09:30pm 17.3 14.5 8.7 57 4.4 SSW 13 15 7 8 1015.4 1015.3 0.2
20/09:00pm 18.6 14.2 8.8 53 5.1 SW 22 28 12 15 1014.8 1014.7 0.2
20/08:30pm 18.9 15.7 5.0 40 6.7 WSW 11 15 6 8 1014.1 1014.0 0.2
20/08:00pm 19.8 16.1 4.3 36 7.5 WSW 13 19 7 10 1013.3 1013.2 0.2
20/07:30pm 20.9 16.0 4.0 33 8.1 WSW 19 26 10 14 1012.5 1012.4 0.2
20/07:00pm 22.4 18.0 4.5 31 8.8 WSW 17 28 9 15 1011.8 1011.7 0.2
20/06:30pm 23.3 18.1 3.8 28 9.5 W 20 30 11 16 1011.1 1011.0 0.2
20/06:00pm 24.1 19.6 4.0 27 9.9 WNW 17 26 9 14 1010.6 1010.5 0.2
20/05:30pm 24.5 19.3 3.8 26 10.2 W 20 33 11 18 1010.1 1010.0 0.2
20/05:00pm 24.3 19.6 3.0 25 10.3 WNW 17 28 9 15 1009.7 1009.6 0.2
20/04:30pm 24.3 18.9 4.6 28 9.8 W 22 37 12 20 1009.4 1009.3 0.2
20/04:00pm 23.6 18.3 3.0 26 10.0 WSW 20 32 11 17 1009.2 1009.1 0.2
20/03:30pm 24.1 18.6 4.0 27 9.9 W 22 43 12 23 1009.0 1008.9 0.2
20/03:00pm 24.3 19.1 3.6 26 10.2 W 20 32 11 17 1008.7 1008.6 0.2
20/02:30pm 22.9 17.2 2.9 27 9.6 WSW 22 35 12 19 1008.6 1008.5 0.2
20/02:11pm 22.7 16.5 2.2 26 9.7 WSW 24 46 13 25 1008.6 1008.5 0.2
20/02:00pm 22.8 15.9 2.8 27 9.6 WSW 28 39 15 21 1008.5 1008.4 0.2
20/01:30pm 23.4 17.6 4.4 29 9.4 WSW 24 41 13 22 1008.3 1008.2 0.2
20/01:00pm 22.7 17.1 3.3 28 9.4 WSW 22 35 12 19 1008.2 1008.1 0.2
20/12:36pm 21.9 15.2 3.6 30 8.8 WSW 28 52 15 28 1008.2 1008.1 0.2
20/12:33pm 21.7 14.9 2.9 29 8.9 WSW 28 52 15 28 1008.1 1008.0 0.2
20/12:30pm 22.2 16.3 3.8 30 8.9 W 24 33 13 18 1008.2 1008.1 0.2
20/12:00pm 21.3 14.6 3.5 31 8.5 WSW 28 48 15 26 1008.2 1008.1 0.2
20/11:44am 20.8 13.5 4.4 34 8.0 SW 32 50 17 27 1008.3 1008.2 0.2
20/11:30am 20.5 14.3 4.5 35 7.8 WSW 26 41 14 22 1008.3 1008.2 0.2
20/11:14am 20.0 14.1 3.7 34 7.8 W 24 46 13 25 1008.5 1008.4 0.2
20/11:00am 19.5 13.5 3.2 34 7.7 WSW 24 39 13 21 1008.6 1008.5 0.0
20/10:39am 18.9 13.0 3.9 37 7.1 W 24 52 13 28 1008.7 1008.6 0.0
20/10:38am 18.7 13.0 2.9 35 7.3 W 22 52 12 28 1008.7 1008.6 0.0
20/10:30am 19.0 14.5 4.0 37 7.1 W 17 26 9 14 1008.9 1008.8 0.0
20/10:00am 18.6 15.3 4.8 40 6.7 WSW 11 20 6 11 1009.1 1009.0 0.0
20/09:30am 17.1 12.1 3.8 41 6.2 WSW 19 30 10 16 1008.9 1008.8 0.0
20/09:00am 16.4 11.6 4.8 46 5.5 WSW 19 28 10 15 1008.9 1008.8 0.6
20/08:30am 15.4 10.6 4.5 48 5.1 WSW 19 33 10 18 1008.7 1008.6 0.6
20/08:00am 14.3 10.2 4.6 52 4.5 W 15 24 8 13 1008.4 1008.3 0.6
20/07:30am 10.1 8.4 7.7 85 1.2 NNE 6 7 3 4 1008.4 1008.3 0.6
20/07:00am 9.1 7.7 7.1 87 0.9 NE 4 9 2 5 1008.3 1008.2 0.6
20/06:30am 9.6 7.0 6.3 80 1.5 NNW 9 13 5 7 1008.0 1007.9 0.6
20/06:00am 9.8 7.9 6.9 82 1.4 SE 6 11 3 6 1007.9 1007.8 0.6
20/05:30am 10.2 8.3 7.6 84 1.2 SSW 7 11 4 6 1007.8 1007.7 0.6
20/05:00am 10.8 7.8 7.7 81 1.5 WSW 13 15 7 8 1007.7 1007.6 0.6
20/04:30am 11.0 9.0 8.6 85 1.2 WSW 9 11 5 6 1007.6 1007.5 0.6
20/04:00am 11.7 8.6 8.7 82 1.5 WSW 15 17 8 9 1007.6 1007.5 0.6
20/03:30am 11.9 10.6 10.0 88 1.0 WSW 7 11 4 6 1007.1 1007.0 0.6
20/03:00am 12.2 10.4 10.8 91 0.7 SW 11 15 6 8 1007.2 1007.1 0.6
20/02:30am 13.0 11.4 11.4 90 0.8 SW 11 17 6 9 1007.3 1007.2 0.4
20/02:00am 12.9 12.3 12.4 97 0.3 SSW 7 9 4 5 1007.3 1007.2 0.0
20/01:30am 12.9 13.6 12.1 95 0.4 CALM 0 0 0 0 1007.0 1006.9 0.0
20/01:00am 12.9 13.6 12.3 96 0.3 CALM 0 0 0 0 1007.1 1007.0 0.0
20/12:30am 12.6 12.4 11.8 95 0.4 SE 4 9 2 5 1006.9 1006.8 0.0
20/12:00am 13.3 12.6 11.9 91 0.8 S 7 11 4 6 1006.7 1006.6 0.0
 
Date/Time
EDT
Temp
°C
App
Temp
°C
Dew
Point
°C
Rel
Hum
%
Delta-T
°C
Wind Press
QNH
hPa
Press
MSL
hPa
Rain since
9am
mm
Dir  Spd
km/h
Gust
km/h
Spd
kts
Gust
kts
19/11:30pm 14.0 13.5 12.2 89 1.0 N 6 7 3 4 1006.3 1006.2 0.0
19/11:00pm 14.5 15.3 12.4 87 1.1 CALM 0 0 0 0 1006.1 1006.0 0.0
19/10:30pm 15.4 16.3 12.9 85 1.4 CALM 0 0 0 0 1006.3 1006.2 0.0
19/10:00pm 16.1 16.9 12.7 80 1.9 CALM 0 0 0 0 1006.5 1006.4 0.0
19/09:30pm 17.0 17.8 12.7 76 2.4 CALM 0 0 0 0 1006.8 1006.7 0.0
19/09:00pm 17.7 17.2 12.8 73 2.7 W 7 9 4 5 1007.0 1006.9 0.0
19/08:30pm 18.3 19.1 12.7 70 3.1 CALM 0 0 0 0 1006.8 1006.7 0.0
19/08:00pm 18.6 18.3 12.8 69 3.3 ENE 6 7 3 4 1006.7 1006.6 0.0

Other Formats:

Comma delimited format used in spreadsheet applications
http://www.bom.gov.au/fwo/IDN60801/IDN60801.95931.axf

JavaScript Object Notation format (JSON) in row-major order
http://www.bom.gov.au/fwo/IDN60801/IDN60801.95931.json